Time;durP1;ratioP1;P1;durP2;ratioP2;P2;SDS_P1;SDS_P2;PMS_P1;PMS_P2;Temp;Humidity;BMP_temperature;BMP_pressure;BME280_temperature;BME280_humidity;BME280_pressure;Samples;Min_cycle;Max_cycle;Signal;HPM_P1;HPM_P2
2022/11/10 00:02:04;;;;;;;15.07;3.95;;;9.80;99.90;;;;;;4825378;29;20057;-83
2022/11/10 00:04:32;;;;;;;12.82;3.45;;;9.90;99.90;;;;;;4824167;29;20053;-84
2022/11/10 00:06:58;;;;;;;14.93;4.00;;;9.90;99.90;;;;;;4811860;29;20061;-84
2022/11/10 00:09:23;;;;;;;16.90;4.07;;;9.90;99.90;;;;;;4828566;29;20046;-85
2022/11/10 00:11:49;;;;;;;14.70;3.67;;;10.10;99.90;;;;;;4826988;29;20102;-84
2022/11/10 00:17:08;;;;;;;17.52;3.85;;;9.90;99.90;;;;;;4828794;29;20076;-83
2022/11/10 00:19:34;;;;;;;13.10;3.65;;;9.80;99.90;;;;;;4811095;29;20069;-84
2022/11/10 00:22:00;;;;;;;19.25;4.53;;;9.80;99.90;;;;;;4829339;29;20050;-84
2022/11/10 00:24:32;;;;;;;16.60;4.03;;;9.80;99.90;;;;;;4815977;29;20072;-84
2022/11/10 00:26:58;;;;;;;11.98;3.58;;;9.80;99.90;;;;;;4824947;29;20093;-83
2022/11/10 00:29:23;;;;;;;14.10;3.85;;;9.90;99.90;;;;;;4810972;29;20038;-84
2022/11/10 00:31:49;;;;;;;22.35;5.25;;;9.80;99.90;;;;;;4824577;29;20050;-83
2022/11/10 00:34:16;;;;;;;14.15;4.20;;;9.80;99.90;;;;;;4800882;29;20038;-83
2022/11/10 00:36:50;;;;;;;20.20;4.60;;;9.80;99.90;;;;;;4814827;29;20043;-84
2022/11/10 00:39:18;;;;;;;17.00;4.07;;;9.60;99.90;;;;;;4827848;29;20038;-83
2022/11/10 00:41:44;;;;;;;14.82;4.88;;;9.80;99.90;;;;;;4824043;29;20042;-84
2022/11/10 00:44:10;;;;;;;20.35;4.35;;;9.80;99.90;;;;;;4824459;29;20047;-83
2022/11/10 00:46:36;;;;;;;25.92;4.70;;;9.70;99.90;;;;;;4825414;29;20061;-84
2022/11/10 00:49:04;;;;;;;21.95;4.63;;;9.70;99.90;;;;;;4828114;29;20050;-83
2022/11/10 00:51:29;;;;;;;20.02;4.75;;;9.90;99.90;;;;;;4798325;29;20047;-83
2022/11/10 00:53:55;;;;;;;22.58;4.63;;;9.70;99.90;;;;;;4826755;29;20045;-84
2022/11/10 00:56:21;;;;;;;13.68;4.13;;;9.70;99.90;;;;;;4824976;29;20053;-86
2022/11/10 00:58:50;;;;;;;18.98;5.25;;;9.70;99.90;;;;;;4807946;29;20050;-84
2022/11/10 01:01:17;;;;;;;14.35;4.53;;;9.60;99.90;;;;;;4825454;29;20057;-85
2022/11/10 01:03:43;;;;;;;24.00;5.60;;;9.70;99.90;;;;;;4812865;29;20074;-84
2022/11/10 01:06:11;;;;;;;14.32;4.20;;;9.70;99.90;;;;;;4812089;29;20046;-84
2022/11/10 01:08:38;;;;;;;15.18;3.88;;;9.60;99.90;;;;;;4808858;29;20046;-84
2022/11/10 01:11:07;;;;;;;15.50;4.45;;;9.60;99.90;;;;;;4810650;29;20053;-83
2022/11/10 01:13:36;;;;;;;21.48;4.07;;;9.60;99.90;;;;;;4825655;29;20038;-83
2022/11/10 01:16:06;;;;;;;22.33;4.93;;;9.50;99.90;;;;;;4809958;29;20050;-86
2022/11/10 01:18:32;;;;;;;14.20;4.63;;;9.50;99.90;;;;;;4797759;29;20125;-83
2022/11/10 01:20:58;;;;;;;17.90;5.13;;;9.50;99.90;;;;;;4823917;29;20054;-83
2022/11/10 01:23:23;;;;;;;17.10;5.03;;;9.50;99.90;;;;;;4826238;29;20050;-84
2022/11/10 01:25:49;;;;;;;17.65;4.15;;;9.50;99.90;;;;;;4825979;29;20051;-83
2022/11/10 01:28:15;;;;;;;19.08;5.10;;;9.50;99.90;;;;;;4809078;29;20070;-84
2022/11/10 01:30:48;;;;;;;17.17;4.43;;;9.50;99.90;;;;;;4827718;29;20042;-83
2022/11/10 01:33:13;;;;;;;18.00;5.43;;;9.50;99.90;;;;;;4813142;29;20038;-83
2022/11/10 01:35:39;;;;;;;20.52;5.00;;;9.50;99.90;;;;;;4810691;29;20053;-84
2022/11/10 01:38:05;;;;;;;18.73;5.35;;;9.50;99.90;;;;;;4810851;29;20046;-83
2022/11/10 01:40:30;;;;;;;18.65;5.30;;;9.50;99.90;;;;;;4822988;29;20046;-85
2022/11/10 01:42:57;;;;;;;17.17;5.10;;;9.50;99.90;;;;;;4808284;29;20084;-83
2022/11/10 01:45:22;;;;;;;16.42;5.30;;;9.50;99.90;;;;;;4807402;29;20058;-86
2022/11/10 01:47:56;;;;;;;17.63;4.90;;;9.40;99.90;;;;;;4824831;29;20129;-84
2022/11/10 01:50:26;;;;;;;27.05;5.40;;;9.50;99.90;;;;;;4827449;29;20039;-83
2022/11/10 01:52:54;;;;;;;15.88;4.65;;;9.70;99.90;;;;;;4828919;29;20051;-83
2022/11/10 01:55:24;;;;;;;23.98;5.20;;;9.40;99.90;;;;;;4824147;29;20060;-83
2022/11/10 01:57:50;;;;;;;21.17;4.65;;;9.40;99.90;;;;;;4791162;29;20058;-82
2022/11/10 02:00:17;;;;;;;13.30;3.92;;;9.40;99.90;;;;;;4810287;29;20155;-83
2022/11/10 02:02:56;;;;;;;17.15;5.40;;;9.40;99.90;;;;;;4808844;29;20106;-83
2022/11/10 02:05:22;;;;;;;13.70;4.38;;;9.40;99.90;;;;;;4825786;29;20042;-83
2022/11/10 02:07:49;;;;;;;17.67;4.40;;;9.50;99.90;;;;;;4811114;29;20105;-83
2022/11/10 02:10:17;;;;;;;20.23;4.75;;;9.40;99.90;;;;;;4807287;29;20038;-83
2022/11/10 02:12:44;;;;;;;22.38;5.47;;;9.40;99.90;;;;;;4807617;29;20843;-82
2022/11/10 02:15:14;;;;;;;20.70;4.15;;;9.40;99.90;;;;;;4823265;29;20046;-85
2022/11/10 02:17:41;;;;;;;18.00;3.85;;;9.40;99.90;;;;;;4796309;29;21263;-84
2022/11/10 02:20:11;;;;;;;16.40;4.07;;;9.40;99.90;;;;;;4825266;29;20062;-83
2022/11/10 02:22:40;;;;;;;18.17;4.40;;;9.40;99.90;;;;;;4807497;29;20047;-83
2022/11/10 02:25:07;;;;;;;13.27;4.47;;;9.40;99.90;;;;;;4823928;29;20054;-83
2022/11/10 02:27:33;;;;;;;17.52;3.97;;;9.40;99.90;;;;;;4824761;29;20073;-85
2022/11/10 02:29:59;;;;;;;16.65;4.30;;;9.40;99.90;;;;;;4807316;29;20842;-83
2022/11/10 02:32:25;;;;;;;15.07;3.63;;;9.90;99.90;;;;;;4806493;29;20542;-83
2022/11/10 02:34:50;;;;;;;14.30;3.22;;;9.40;99.90;;;;;;4823404;29;20038;-84
2022/11/10 02:37:17;;;;;;;19.65;3.83;;;9.50;99.90;;;;;;4806275;29;20046;-83
2022/11/10 02:39:42;;;;;;;14.60;3.08;;;9.50;99.90;;;;;;4820497;29;20051;-84
2022/11/10 02:42:09;;;;;;;20.65;3.65;;;9.40;99.90;;;;;;4810887;29;20533;-83
2022/11/10 02:44:39;;;;;;;19.63;3.88;;;9.50;99.90;;;;;;4824489;29;20047;-83
2022/11/10 02:47:05;;;;;;;13.77;3.67;;;9.50;99.90;;;;;;4826266;29;20047;-83
2022/11/10 02:49:31;;;;;;;12.95;3.55;;;9.50;99.90;;;;;;4825967;29;20089;-83
2022/11/10 02:51:56;;;;;;;16.27;3.72;;;9.50;99.90;;;;;;4822560;29;20168;-82
2022/11/10 02:54:22;;;;;;;20.45;3.92;;;9.60;99.90;;;;;;4805711;29;20050;-83
2022/11/10 02:56:47;;;;;;;12.95;4.53;;;9.50;99.90;;;;;;4820653;29;20123;-85
2022/11/10 02:59:13;;;;;;;15.75;3.80;;;9.60;99.90;;;;;;4796994;29;20053;-84
2022/11/10 03:01:39;;;;;;;14.57;3.97;;;9.50;99.90;;;;;;4811406;29;20054;-84
2022/11/10 03:04:05;;;;;;;23.10;5.68;;;9.60;99.90;;;;;;4784569;29;20060;-84
2022/11/10 03:06:33;;;;;;;15.27;5.38;;;9.50;99.90;;;;;;4794635;29;20054;-84
2022/11/10 03:08:59;;;;;;;14.95;4.88;;;9.60;99.90;;;;;;4811219;29;20491;-84
2022/11/10 03:11:24;;;;;;;20.00;6.20;;;9.60;99.90;;;;;;4799467;29;20049;-84
2022/11/10 03:13:53;;;;;;;18.63;5.47;;;9.60;99.90;;;;;;4816094;29;20050;-84
2022/11/10 03:16:18;;;;;;;18.23;5.55;;;9.80;99.90;;;;;;4800026;29;20051;-84
2022/11/10 03:18:44;;;;;;;16.45;5.80;;;10.00;99.90;;;;;;4786880;29;20486;-84
2022/11/10 03:21:09;;;;;;;24.92;7.57;;;9.70;99.90;;;;;;4814684;29;20074;-84
2022/11/10 03:23:35;;;;;;;20.67;7.07;;;9.70;99.90;;;;;;4800966;29;20076;-84
2022/11/10 03:26:06;;;;;;;21.17;6.57;;;9.60;99.90;;;;;;4799802;29;20140;-84
2022/11/10 03:28:44;;;;;;;18.80;6.40;;;9.70;99.90;;;;;;4782629;29;20054;-84
2022/11/10 03:31:09;;;;;;;20.20;6.57;;;9.70;99.90;;;;;;4803894;29;20516;-84
2022/11/10 03:33:35;;;;;;;26.33;6.75;;;9.70;99.90;;;;;;4798611;29;20129;-84
2022/11/10 03:36:00;;;;;;;22.73;6.22;;;9.70;99.90;;;;;;4788779;29;20132;-84
2022/11/10 03:38:41;;;;;;;27.38;7.80;;;9.70;99.90;;;;;;4800253;29;20034;-84
2022/11/10 03:41:07;;;;;;;22.27;6.93;;;9.70;99.90;;;;;;4787921;29;20079;-84
2022/11/10 03:43:32;;;;;;;21.40;6.97;;;9.70;99.90;;;;;;4800909;29;20051;-84
2022/11/10 03:45:58;;;;;;;22.70;6.25;;;9.70;99.90;;;;;;4812965;29;20074;-83
2022/11/10 03:48:36;;;;;;;25.77;6.78;;;9.70;99.90;;;;;;4800234;29;20102;-84
2022/11/10 03:51:02;;;;;;;21.90;6.25;;;9.60;99.90;;;;;;4789434;29;20046;-84
2022/11/10 03:53:27;;;;;;;22.70;7.03;;;9.60;99.90;;;;;;4790148;29;20042;-84
2022/11/10 03:56:00;;;;;;;22.08;7.88;;;9.70;99.90;;;;;;4783804;29;20049;-84
2022/11/10 03:58:37;;;;;;;25.52;6.78;;;9.60;99.90;;;;;;4801684;29;20134;-84
2022/11/10 04:01:03;;;;;;;29.45;8.55;;;9.60;99.90;;;;;;4788262;29;20102;-84
2022/11/10 04:03:29;;;;;;;22.27;6.93;;;9.60;99.90;;;;;;4813393;29;20464;-84
2022/11/10 04:17:17;;;;;;;16.08;6.38;;;9.60;99.90;;;;;;4797919;29;20764;-84
2022/11/10 04:19:46;;;;;;;22.35;7.07;;;9.70;99.90;;;;;;4815513;29;20097;-84
2022/11/10 04:23:25;;;;;;;24.20;7.35;;;9.70;99.90;;;;;;4798934;29;20038;-84
2022/11/10 04:24:57;;;;;;;22.90;6.15;;;9.70;99.90;;;;;;4795972;29;20142;-84
2022/11/10 04:27:23;;;;;;;24.85;6.28;;;9.70;99.90;;;;;;4799849;29;20137;-84
2022/11/10 04:29:48;;;;;;;21.10;6.03;;;9.70;99.90;;;;;;4788067;29;20401;-84
2022/11/10 04:32:14;;;;;;;23.67;6.65;;;9.70;99.90;;;;;;4797470;29;20045;-84
2022/11/10 04:34:39;;;;;;;21.92;6.53;;;9.70;99.90;;;;;;4798175;29;20062;-84
2022/11/10 04:37:14;;;;;;;20.55;6.65;;;9.70;99.90;;;;;;4799749;29;20050;-84
2022/11/10 04:39:39;;;;;;;23.40;6.30;;;9.70;99.90;;;;;;4800783;29;20141;-84
2022/11/10 04:42:05;;;;;;;22.88;6.53;;;9.70;99.90;;;;;;4782935;29;20133;-83
2022/11/10 04:44:30;;;;;;;25.67;6.18;;;9.80;99.90;;;;;;4795878;29;20050;-84
2022/11/10 04:46:56;;;;;;;19.13;5.50;;;9.70;99.90;;;;;;4810914;29;20143;-83
2022/11/10 04:49:22;;;;;;;26.48;6.88;;;9.70;99.90;;;;;;4798707;29;20042;-83
2022/11/10 04:51:51;;;;;;;20.75;6.85;;;10.60;99.90;;;;;;4781778;29;20046;-82
2022/11/10 04:54:17;;;;;;;25.40;6.82;;;9.70;99.90;;;;;;4797344;29;20080;-83
2022/11/10 04:56:42;;;;;;;22.65;6.22;;;9.80;99.90;;;;;;4784572;29;20538;-83
2022/11/10 04:59:08;;;;;;;20.38;7.00;;;9.80;99.90;;;;;;4787183;29;20046;-83
2022/11/10 05:01:33;;;;;;;21.05;6.30;;;9.80;99.90;;;;;;4784749;29;20050;-84
2022/11/10 05:04:17;;;;;;;20.45;6.50;;;9.70;99.90;;;;;;4801851;29;20057;-86
2022/11/10 05:10:28;;;;;;;25.10;6.60;;;9.80;99.90;;;;;;4816502;29;20033;-85
2022/11/10 05:13:03;;;;;;;24.33;7.60;;;9.70;99.90;;;;;;4786763;29;20088;-84
2022/11/10 05:15:29;;;;;;;24.48;7.10;;;9.80;99.90;;;;;;4796047;29;20054;-84
2022/11/10 05:17:55;;;;;;;25.50;6.10;;;9.80;99.90;;;;;;4797064;29;20061;-84
2022/11/10 05:20:23;;;;;;;29.15;7.00;;;10.50;99.90;;;;;;4795092;29;20042;-84
2022/11/10 05:23:42;;;;;;;30.92;7.20;;;9.80;99.90;;;;;;4797315;29;20046;-85
2022/11/10 05:26:33;;;;;;;23.52;6.45;;;9.70;99.90;;;;;;4782546;29;20439;-86
2022/11/10 05:29:20;;;;;;;24.65;8.10;;;9.80;99.90;;;;;;4787520;29;20686;-87
2022/11/10 05:32:44;;;;;;;35.05;6.82;;;9.80;99.90;;;;;;4802163;29;20533;-84
2022/11/10 05:36:28;;;;;;;29.42;7.22;;;9.80;99.90;;;;;;4793502;29;20104;-87
2022/11/10 05:47:17;;;;;;;22.88;7.60;;;9.80;99.90;;;;;;4810107;29;20157;-87
2022/11/10 05:50:29;;;;;;;24.85;7.55;;;9.80;99.90;;;;;;4796231;29;20111;-87
2022/11/10 05:53:04;;;;;;;31.40;7.47;;;9.80;99.90;;;;;;4779455;29;20577;-85
2022/11/10 05:55:58;;;;;;;33.13;8.18;;;9.80;99.90;;;;;;4808011;29;20129;-87
2022/11/10 06:17:28;;;;;;;28.10;8.60;;;9.90;99.90;;;;;;4811062;29;20057;-87
2022/11/10 06:19:54;;;;;;;27.10;7.35;;;9.90;99.90;;;;;;4782539;29;20979;-85
2022/11/10 06:22:24;;;;;;;34.90;8.88;;;10.10;99.90;;;;;;4767273;29;20908;-85
2022/11/10 06:25:10;;;;;;;22.65;6.97;;;9.90;99.90;;;;;;4778824;29;20101;-83
2022/11/10 06:27:40;;;;;;;29.50;7.30;;;10.00;99.90;;;;;;4764899;29;20062;-84
2022/11/10 06:30:27;;;;;;;29.95;7.25;;;10.40;99.90;;;;;;4767765;29;20052;-86
2022/11/10 06:32:53;;;;;;;24.67;6.63;;;9.80;99.90;;;;;;4763886;29;20043;-83
2022/11/10 06:35:20;;;;;;;25.63;6.93;;;9.90;99.90;;;;;;4776391;29;20103;-82
2022/11/10 06:38:04;;;;;;;25.23;7.60;;;9.90;99.90;;;;;;4763032;29;20134;-82
2022/11/10 06:40:31;;;;;;;22.42;6.85;;;9.80;99.90;;;;;;4766971;29;20130;-82
2022/11/10 06:42:57;;;;;;;23.58;6.70;;;9.80;99.90;;;;;;4768859;29;20162;-81
2022/11/10 06:45:53;;;;;;;29.33;8.25;;;9.80;99.90;;;;;;4784790;29;20043;-85
2022/11/10 06:48:39;;;;;;;26.45;7.47;;;9.90;99.90;;;;;;4754884;29;20512;-84
2022/11/10 06:51:06;;;;;;;24.40;8.02;;;10.00;99.90;;;;;;4772545;29;20144;-83
2022/11/10 06:58:10;;;;;;;27.25;7.90;;;9.80;99.90;;;;;;4744979;30;20054;-85
2022/11/10 07:01:07;;;;;;;24.30;7.22;;;9.80;99.90;;;;;;4730902;30;20055;-85
2022/11/10 07:03:41;;;;;;;21.60;7.13;;;9.80;99.90;;;;;;4712108;30;20056;-84
2022/11/10 07:06:07;;;;;;;28.95;8.18;;;9.90;99.90;;;;;;4762895;29;20532;-83
2022/11/10 07:08:33;;;;;;;30.98;7.50;;;9.80;99.90;;;;;;4782942;29;20161;-82
2022/11/10 07:10:58;;;;;;;20.50;7.03;;;9.80;99.90;;;;;;4772343;29;20047;-83
2022/11/10 07:13:24;;;;;;;23.52;7.80;;;9.80;99.90;;;;;;4764619;29;20043;-82
2022/11/10 07:15:50;;;;;;;19.95;7.90;;;9.90;99.90;;;;;;4785320;29;20138;-83
2022/11/10 07:18:25;;;;;;;23.30;6.78;;;9.80;99.90;;;;;;4783448;29;20047;-83
2022/11/10 07:20:50;;;;;;;26.60;7.37;;;9.90;99.90;;;;;;4766194;29;20479;-83
2022/11/10 07:23:16;;;;;;;27.92;7.63;;;10.00;99.90;;;;;;4773468;29;20370;-82
2022/11/10 07:25:41;;;;;;;19.15;7.80;;;10.10;99.90;;;;;;4771059;29;20103;-83
2022/11/10 07:28:11;;;;;;;23.33;8.20;;;10.10;99.90;;;;;;4770936;29;20053;-83
2022/11/10 07:30:54;;;;;;;25.75;8.32;;;10.10;99.90;;;;;;4767311;29;20039;-83
2022/11/10 07:33:20;;;;;;;29.23;8.88;;;10.20;99.90;;;;;;4797870;29;20531;-84
2022/11/10 07:36:04;;;;;;;23.55;7.55;;;10.20;99.90;;;;;;4779280;29;20137;-84
2022/11/10 07:38:30;;;;;;;27.55;7.93;;;10.30;99.90;;;;;;4769610;29;20122;-83
2022/11/10 07:40:55;;;;;;;29.02;7.55;;;10.40;99.90;;;;;;4769447;29;20042;-83
2022/11/10 07:43:28;;;;;;;24.02;7.55;;;10.20;99.90;;;;;;4771238;29;20043;-84
2022/11/10 07:46:10;;;;;;;27.77;7.70;;;10.20;99.90;;;;;;4780401;29;20057;-84
2022/11/10 07:48:36;;;;;;;19.63;7.20;;;10.20;99.90;;;;;;4767166;29;20046;-84
2022/11/10 07:51:05;;;;;;;29.05;9.55;;;10.20;99.90;;;;;;4766637;29;20583;-84
2022/11/10 07:53:44;;;;;;;20.52;7.85;;;10.20;99.90;;;;;;4781518;29;20043;-83
2022/11/10 07:56:10;;;;;;;20.33;7.10;;;10.20;99.90;;;;;;4764451;29;20047;-84
2022/11/10 07:58:38;;;;;;;19.05;7.00;;;10.30;99.90;;;;;;4796008;29;20091;-84
2022/11/10 08:01:17;;;;;;;29.65;7.00;;;10.40;99.90;;;;;;4764809;29;20039;-84
2022/11/10 08:03:42;;;;;;;26.55;7.95;;;10.20;99.90;;;;;;4785494;29;20043;-84
2022/11/10 08:06:08;;;;;;;29.67;7.78;;;10.40;99.90;;;;;;4778291;29;20479;-84
2022/11/10 08:08:34;;;;;;;20.42;6.53;;;10.30;99.90;;;;;;4781943;29;20038;-85
2022/11/10 08:11:18;;;;;;;19.75;7.25;;;10.10;99.90;;;;;;4764865;29;20039;-84
2022/11/10 08:13:43;;;;;;;26.80;7.80;;;10.60;99.90;;;;;;4769241;29;20494;-84
2022/11/10 08:16:14;;;;;;;28.23;7.68;;;10.60;99.90;;;;;;4791025;29;20043;-84
2022/11/10 08:18:57;;;;;;;19.67;6.70;;;10.50;99.90;;;;;;4777668;29;20057;-84
2022/11/10 08:21:23;;;;;;;21.15;6.32;;;10.50;99.90;;;;;;4777933;29;20043;-84
2022/11/10 08:23:48;;;;;;;18.52;5.93;;;10.50;99.90;;;;;;4767651;29;20050;-84
2022/11/10 08:26:28;;;;;;;23.95;6.22;;;10.60;99.90;;;;;;4789654;29;20418;-84
2022/11/10 08:28:56;;;;;;;26.05;7.13;;;10.90;99.90;;;;;;4767145;29;20070;-84
2022/11/10 08:31:30;;;;;;;16.90;5.57;;;11.40;99.90;;;;;;4777249;29;20134;-84
2022/11/10 08:34:08;;;;;;;;;;;11.10;99.90;;;;;;4776960;29;20054;-84
2022/11/10 08:36:41;;;;;;;19.50;5.45;;;11.00;99.90;;;;;;4779899;29;19957;-84
2022/11/10 08:39:28;;;;;;;21.85;6.05;;;11.10;99.90;;;;;;4767986;29;20530;-84
2022/11/10 08:41:54;;;;;;;25.73;7.13;;;11.20;99.90;;;;;;4779833;29;20578;-84
2022/11/10 08:44:20;;;;;;;21.42;5.32;;;12.10;99.90;;;;;;4764054;29;20055;-84
2022/11/10 08:47:00;;;;;;;20.02;5.78;;;11.50;99.90;;;;;;4763382;29;20079;-84
2022/11/10 08:49:31;;;;;;;23.85;6.03;;;11.50;99.90;;;;;;4767303;29;20244;-84
2022/11/10 08:52:16;;;;;;;19.52;5.43;;;11.40;99.90;;;;;;4794300;29;20051;-85
2022/11/10 08:58:45;;;;;;;23.20;6.03;;;11.60;99.90;;;;;;4782409;29;20074;-84
2022/11/10 09:01:37;;;;;;;25.48;5.65;;;11.60;99.90;;;;;;4761697;29;20059;-84
2022/11/10 09:04:37;;;;;;;21.55;4.55;;;11.60;99.90;;;;;;4761977;29;20053;-84
2022/11/10 09:12:49;;;;;;;;;;;;;;;;;;;;;
2022/11/10 09:19:11;;;;;;;18.95;4.18;;;11.90;99.90;;;;;;4783987;29;20150;-84
2022/11/10 09:22:11;;;;;;;17.85;5.10;;;12.30;99.90;;;;;;4765567;29;20134;-84
2022/11/10 09:25:06;;;;;;;24.25;4.97;;;12.00;99.90;;;;;;4765915;29;20096;-84
2022/11/10 09:27:50;;;;;;;22.02;5.28;;;12.10;99.90;;;;;;4771247;29;20059;-84
2022/11/10 09:30:57;;;;;;;18.90;5.13;;;12.20;99.90;;;;;;4777764;29;20055;-84
2022/11/10 09:34:04;;;;;;;21.60;5.10;;;12.10;99.90;;;;;;4763850;29;20051;-84
2022/11/10 09:36:45;;;;;;;18.60;4.93;;;11.80;99.90;;;;;;4777986;29;20074;-84
2022/11/10 09:39:19;;;;;;;19.55;5.15;;;12.40;99.90;;;;;;4763211;29;20540;-84
2022/11/10 09:41:49;;;;;;;20.00;5.15;;;12.60;99.90;;;;;;4765290;29;20138;-84
2022/11/10 09:44:26;;;;;;;21.48;4.82;;;12.60;99.90;;;;;;4763641;29;20066;-84
2022/11/10 09:47:26;;;;;;;22.45;6.05;;;12.60;99.90;;;;;;4765157;29;20135;-84
2022/11/10 09:49:57;;;;;;;30.17;8.00;;;12.20;99.90;;;;;;4781337;29;20129;-84
2022/11/10 09:52:34;;;;;;;26.80;8.82;;;13.00;99.90;;;;;;4767079;29;20070;-84
2022/11/10 09:55:26;;;;;;;25.77;10.13;;;12.80;99.90;;;;;;4768131;29;20054;-82
2022/11/10 09:57:58;;;;;;;31.90;10.82;;;12.90;99.90;;;;;;4786241;29;20070;-85
2022/11/10 10:00:38;;;;;;;32.78;10.13;;;12.90;99.90;;;;;;4771003;29;20050;-84
2022/11/10 10:03:59;;;;;;;29.90;11.80;;;12.90;99.90;;;;;;4767540;29;20066;-83
2022/11/10 11:05:17;;;;;;;18.95;3.65;;;13.90;99.90;;;;;;4836017;29;20961;-85
2022/11/10 11:23:38;;;;;;;14.00;3.75;;;14.80;99.90;;;;;;4816548;29;20577;-87
2022/11/10 11:53:21;;;;;;;16.65;3.72;;;14.20;99.90;;;;;;4852637;29;20058;-86
2022/11/10 11:56:12;;;;;;;19.00;3.08;;;14.30;99.90;;;;;;4840024;29;20045;-87
2022/11/10 11:58:45;;;;;;;19.42;3.67;;;14.30;99.90;;;;;;4836588;29;20077;-86
2022/11/10 12:01:35;;;;;;;15.27;3.05;;;14.30;99.90;;;;;;4818022;29;20034;-87
2022/11/10 12:04:28;;;;;;;20.25;3.28;;;14.20;99.90;;;;;;4842669;29;20038;-87
2022/11/10 12:07:17;;;;;;;;;;;14.30;99.90;;;;;;4826910;29;20109;-87
2022/11/10 12:10:30;;;;;;;18.98;2.95;;;14.10;99.90;;;;;;4830413;29;19920;-87
2022/11/10 12:13:51;;;;;;;18.42;3.40;;;14.10;99.90;;;;;;4813611;29;20054;-88
2022/11/10 12:16:49;;;;;;;18.25;3.35;;;14.10;99.90;;;;;;4828611;29;20038;-88
2022/11/10 12:20:21;;;;;;;15.25;2.58;;;14.00;99.90;;;;;;4838528;29;20575;-87
2022/11/10 12:23:45;;;;;;;13.95;2.70;;;13.90;99.90;;;;;;4753715;30;20051;-88
2022/11/10 12:27:17;;;;;;;12.68;2.97;;;13.90;99.90;;;;;;4804240;29;20053;-87
2022/11/10 12:29:58;;;;;;;15.63;2.58;;;13.90;99.90;;;;;;4784633;29;20056;-88
2022/11/10 12:33:28;;;;;;;18.70;2.75;;;13.90;99.90;;;;;;4858730;29;20105;-88
2022/11/10 12:36:16;;;;;;;18.98;2.90;;;13.90;99.90;;;;;;4841883;29;20568;-87
2022/11/10 12:39:10;;;;;;;20.10;3.33;;;13.90;99.90;;;;;;4829415;29;20042;-87
2022/11/10 12:42:03;;;;;;;25.75;3.33;;;13.90;99.90;;;;;;4827237;29;20045;-88
2022/11/10 12:45:05;;;;;;;15.57;2.95;;;13.90;99.90;;;;;;4820323;29;20049;-88
2022/11/10 12:47:54;;;;;;;14.45;2.60;;;13.90;99.90;;;;;;4771341;29;20271;-87
2022/11/10 12:50:41;;;;;;;18.35;4.40;;;14.00;99.90;;;;;;4771332;29;20071;-87
2022/11/10 12:53:42;;;;;;;20.25;3.90;;;14.00;99.90;;;;;;4839668;29;20519;-87
2022/11/10 12:56:41;;;;;;;20.00;2.30;;;14.00;99.90;;;;;;4861591;29;20072;-88
2022/11/10 12:59:40;;;;;;;17.75;3.10;;;14.00;99.90;;;;;;4837934;29;20052;-87
2022/11/10 13:06:06;;;;;;;13.60;2.17;;;14.10;99.90;;;;;;4832456;29;20049;-87
2022/11/10 13:09:26;;;;;;;16.35;2.95;;;14.10;99.90;;;;;;4824964;29;20045;-88
2022/11/10 13:12:28;;;;;;;17.92;2.95;;;14.00;99.90;;;;;;4855824;29;20041;-88
2022/11/10 13:15:19;;;;;;;18.70;2.67;;;14.00;99.90;;;;;;4827361;29;20485;-87
2022/11/10 13:18:34;;;;;;;14.32;2.58;;;14.00;99.90;;;;;;4830161;29;20500;-88
2022/11/10 13:21:52;;;;;;;21.20;2.45;;;14.00;99.90;;;;;;5080639;27;20413;-89
2022/11/10 13:24:57;;;;;;;14.23;2.65;;;14.00;99.90;;;;;;5059662;28;20045;-86
2022/11/10 13:27:49;;;;;;;20.67;3.58;;;14.10;99.90;;;;;;5023472;28;20702;-87
2022/11/10 13:30:37;;;;;;;14.70;3.10;;;14.00;99.90;;;;;;5045100;28;20032;-87
2022/11/10 13:34:02;;;;;;;17.83;3.53;;;14.10;99.90;;;;;;5066031;28;20091;-87
2022/11/10 13:36:43;;;;;;;20.52;2.78;;;14.10;99.90;;;;;;5045100;28;20064;-88
2022/11/10 13:39:26;;;;;;;11.95;2.53;;;14.10;99.90;;;;;;5045296;28;20049;-88
2022/11/10 13:41:58;;;;;;;16.33;2.92;;;14.10;99.90;;;;;;5046736;28;20423;-88
2022/11/10 13:44:36;;;;;;;17.13;3.00;;;14.10;99.90;;;;;;5062984;28;20041;-85
2022/11/10 13:47:17;;;;;;;17.33;2.33;;;14.10;99.90;;;;;;5054530;28;20395;-85
2022/11/10 13:50:00;;;;;;;16.20;2.60;;;14.00;99.90;;;;;;5059924;28;20037;-86
2022/11/10 13:52:33;;;;;;;12.90;2.45;;;14.00;99.90;;;;;;5054887;28;20049;-87
2022/11/10 13:55:39;;;;;;;15.77;2.65;;;14.00;99.90;;;;;;5044637;28;20409;-87
2022/11/10 13:58:10;;;;;;;14.52;2.78;;;14.00;99.90;;;;;;5020933;28;20407;-87
2022/11/10 14:00:36;;;;;;;12.30;2.53;;;14.10;99.90;;;;;;5058550;28;20040;-89
2022/11/10 14:03:04;;;;;;;19.42;2.78;;;14.00;99.90;;;;;;5049707;28;20037;-86
2022/11/10 14:05:38;;;;;;;20.70;3.58;;;14.00;99.90;;;;;;5039533;28;20041;-87
2022/11/10 14:08:19;;;;;;;14.23;2.53;;;14.10;99.90;;;;;;5043869;28;20226;-88
2022/11/10 14:10:56;;;;;;;14.98;2.15;;;14.00;99.90;;;;;;5060455;28;20036;-87
2022/11/10 14:13:25;;;;;;;17.00;2.78;;;13.90;99.90;;;;;;5040489;28;20049;-87
2022/11/10 14:15:53;;;;;;;14.98;2.35;;;13.90;99.90;;;;;;5062100;28;20310;-86
2022/11/10 14:18:29;;;;;;;13.50;3.05;;;14.00;99.90;;;;;;5056062;28;20040;-87
2022/11/10 14:20:59;;;;;;;18.27;3.05;;;14.00;99.90;;;;;;5058929;28;20052;-87
2022/11/10 14:23:38;;;;;;;17.42;2.53;;;14.00;99.90;;;;;;5040564;28;20043;-86
2022/11/10 14:26:18;;;;;;;18.88;3.45;;;14.00;99.90;;;;;;5041451;28;20044;-87
2022/11/10 14:28:43;;;;;;;18.65;2.83;;;13.90;99.90;;;;;;5050983;28;20083;-87
2022/11/10 14:31:24;;;;;;;11.25;2.30;;;14.00;99.90;;;;;;5047321;28;20069;-87
2022/11/10 14:34:30;;;;;;;14.75;2.75;;;13.90;99.90;;;;;;5040742;28;20418;-87
2022/11/10 14:37:00;;;;;;;20.25;3.33;;;14.00;99.90;;;;;;5038019;28;20048;-86
2022/11/10 18:21:09;;;;;;;9.20;1.95;;;13.20;99.90;;;;;;5042688;28;20164;-86
2022/11/10 18:23:35;;;;;;;6.57;1.92;;;13.20;99.90;;;;;;5038251;28;20139;-86
2022/11/10 18:26:07;;;;;;;8.52;1.98;;;13.20;99.90;;;;;;5031875;28;20457;-86
2022/11/10 18:28:47;;;;;;;12.50;2.60;;;13.20;99.90;;;;;;5026052;28;20041;-87
2022/11/10 18:31:20;;;;;;;14.23;2.33;;;13.10;99.90;;;;;;5037367;28;20041;-84
2022/11/10 18:33:47;;;;;;;10.98;1.77;;;13.00;99.90;;;;;;5009778;28;20500;-85
2022/11/10 18:36:12;;;;;;;10.05;1.95;;;13.00;99.90;;;;;;5038432;28;20721;-86
2022/11/10 18:39:13;;;;;;;;;;;;;;;;;;;;;
2022/11/10 18:42:27;;;;;;;9.75;2.03;;;12.90;99.90;;;;;;5034996;28;20045;-86
2022/11/10 18:44:53;;;;;;;11.13;2.88;;;13.00;99.90;;;;;;5012935;28;20045;-84
2022/11/10 18:47:19;;;;;;;7.13;2.72;;;13.10;99.90;;;;;;5031665;28;20055;-85
2022/11/10 18:50:03;;;;;;;8.43;2.38;;;12.90;99.90;;;;;;5039356;28;20172;-86
2022/11/10 18:52:29;;;;;;;12.20;2.10;;;12.70;99.90;;;;;;5021170;28;20038;-85
2022/11/10 18:55:20;;;;;;;9.68;1.80;;;12.60;99.90;;;;;;5018273;28;20050;-86
2022/11/10 18:57:47;;;;;;;17.17;3.03;;;12.50;99.90;;;;;;5036018;28;20041;-87
2022/11/10 19:00:34;;;;;;;7.72;1.65;;;12.50;99.90;;;;;;5011111;28;20045;-86
2022/11/10 19:03:28;;;;;;;7.22;2.58;;;12.40;99.90;;;;;;5042047;28;20555;-87
2022/11/10 19:07:15;;;;;;;11.82;2.28;;;12.40;99.90;;;;;;5033291;28;20487;-86
2022/11/10 19:14:40;;;;;;;10.25;2.55;;;12.20;99.90;;;;;;5006873;28;20107;-86
2022/11/10 19:17:36;;;;;;;12.60;2.65;;;12.30;99.90;;;;;;4986747;28;20057;-86
2022/11/10 19:24:10;;;;;;;6.85;2.05;;;12.20;99.90;;;;;;4928217;29;20066;-87
2022/11/10 19:30:37;;;;;;;7.57;2.08;;;12.00;99.90;;;;;;5008307;28;20056;-87
2022/11/10 19:37:36;;;;;;;7.10;2.33;;;11.90;99.90;;;;;;5003263;28;20045;-87
2022/11/10 20:16:47;;;;;;;12.02;1.90;;;11.70;99.90;;;;;;5038276;28;20402;-85
2022/11/10 20:19:13;;;;;;;10.82;2.63;;;11.60;99.90;;;;;;5024690;28;20033;-86
2022/11/10 20:21:38;;;;;;;8.20;2.30;;;11.60;99.90;;;;;;5023310;28;20044;-84
2022/11/10 20:24:22;;;;;;;8.23;1.80;;;11.60;99.90;;;;;;5018874;28;20037;-85
2022/11/10 20:26:49;;;;;;;12.25;2.03;;;11.60;99.90;;;;;;5025677;28;20088;-82
2022/11/10 20:29:17;;;;;;;10.98;2.28;;;11.60;99.90;;;;;;5024598;28;20041;-83
2022/11/10 20:32:00;;;;;;;5.47;1.70;;;11.60;99.90;;;;;;5029087;28;20095;-83
2022/11/10 20:34:25;;;;;;;7.20;1.70;;;11.70;99.90;;;;;;5027004;28;20055;-83
2022/11/10 20:37:17;;;;;;;7.63;1.88;;;11.70;99.90;;;;;;5022163;28;20038;-84
2022/11/10 20:39:42;;;;;;;5.93;1.63;;;12.30;99.90;;;;;;5019674;28;20052;-83
2022/11/10 20:42:32;;;;;;;6.68;2.08;;;11.60;99.90;;;;;;5036741;28;20045;-84
2022/11/10 20:44:58;;;;;;;9.77;2.00;;;11.70;99.90;;;;;;5030911;28;20048;-82
2022/11/10 20:47:26;;;;;;;13.25;2.03;;;11.70;99.90;;;;;;5023148;28;20037;-84
2022/11/10 20:49:51;;;;;;;13.60;2.33;;;11.70;99.90;;;;;;5039858;28;20081;-83
2022/11/10 20:52:23;;;;;;;6.93;1.95;;;11.70;99.90;;;;;;5037170;28;20143;-83
2022/11/10 20:54:49;;;;;;;9.80;2.25;;;11.70;99.90;;;;;;5037372;28;20499;-83
2022/11/10 20:57:14;;;;;;;9.10;1.98;;;11.70;99.90;;;;;;5023234;28;20037;-83